sensor_id;sensor_type;location;lat;lon;timestamp;P1;durP1;ratioP1;P2;durP2;ratioP2
16667;SDS011;8447;52.630;4.734;2023-03-23T00:00:54;4.73;;;2.43;;
16667;SDS011;8447;52.630;4.734;2023-03-23T00:03:20;5.10;;;2.80;;
16667;SDS011;8447;52.630;4.734;2023-03-23T00:05:48;4.07;;;2.57;;
16667;SDS011;8447;52.630;4.734;2023-03-23T00:08:17;9.70;;;2.53;;
16667;SDS011;8447;52.630;4.734;2023-03-23T00:10:47;4.40;;;2.60;;
16667;SDS011;8447;52.630;4.734;2023-03-23T00:13:13;3.73;;;2.30;;
16667;SDS011;8447;52.630;4.734;2023-03-23T00:15:44;4.70;;;2.33;;
16667;SDS011;8447;52.630;4.734;2023-03-23T00:18:10;5.53;;;2.67;;
16667;SDS011;8447;52.630;4.734;2023-03-23T00:20:48;5.33;;;2.43;;
16667;SDS011;8447;52.630;4.734;2023-03-23T00:23:15;8.10;;;2.70;;
16667;SDS011;8447;52.630;4.734;2023-03-23T00:25:44;8.00;;;2.20;;
16667;SDS011;8447;52.630;4.734;2023-03-23T00:28:11;5.53;;;2.50;;
16667;SDS011;8447;52.630;4.734;2023-03-23T00:30:38;6.70;;;2.70;;
16667;SDS011;8447;52.630;4.734;2023-03-23T00:33:04;7.00;;;2.40;;
16667;SDS011;8447;52.630;4.734;2023-03-23T00:35:31;4.57;;;2.37;;
16667;SDS011;8447;52.630;4.734;2023-03-23T00:37:58;9.43;;;2.70;;
16667;SDS011;8447;52.630;4.734;2023-03-23T00:40:25;6.20;;;1.67;;
16667;SDS011;8447;52.630;4.734;2023-03-23T00:42:51;5.00;;;2.33;;
16667;SDS011;8447;52.630;4.734;2023-03-23T00:45:18;5.87;;;2.33;;
16667;SDS011;8447;52.630;4.734;2023-03-23T00:47:44;2.03;;;1.63;;
16667;SDS011;8447;52.630;4.734;2023-03-23T00:50:12;4.87;;;2.37;;
16667;SDS011;8447;52.630;4.734;2023-03-23T00:52:38;6.13;;;2.20;;
16667;SDS011;8447;52.630;4.734;2023-03-23T00:55:07;2.97;;;1.47;;
16667;SDS011;8447;52.630;4.734;2023-03-23T00:57:33;3.60;;;1.60;;
16667;SDS011;8447;52.630;4.734;2023-03-23T01:00:00;6.43;;;2.20;;
16667;SDS011;8447;52.630;4.734;2023-03-23T01:02:26;3.60;;;1.50;;
16667;SDS011;8447;52.630;4.734;2023-03-23T01:04:53;1.63;;;1.10;;
16667;SDS011;8447;52.630;4.734;2023-03-23T01:07:19;3.83;;;2.03;;
16667;SDS011;8447;52.630;4.734;2023-03-23T01:09:46;4.93;;;2.43;;
16667;SDS011;8447;52.630;4.734;2023-03-23T01:12:14;6.23;;;2.03;;
16667;SDS011;8447;52.630;4.734;2023-03-23T01:14:41;9.10;;;1.43;;
16667;SDS011;8447;52.630;4.734;2023-03-23T01:17:07;2.53;;;1.53;;
16667;SDS011;8447;52.630;4.734;2023-03-23T01:19:34;4.67;;;1.57;;
16667;SDS011;8447;52.630;4.734;2023-03-23T01:22:02;5.80;;;2.00;;
16667;SDS011;8447;52.630;4.734;2023-03-23T01:24:29;5.27;;;1.50;;
16667;SDS011;8447;52.630;4.734;2023-03-23T01:26:56;4.17;;;1.37;;
16667;SDS011;8447;52.630;4.734;2023-03-23T01:29:25;3.40;;;1.37;;
16667;SDS011;8447;52.630;4.734;2023-03-23T01:31:51;6.60;;;1.10;;
16667;SDS011;8447;52.630;4.734;2023-03-23T01:34:18;1.93;;;1.27;;
16667;SDS011;8447;52.630;4.734;2023-03-23T01:36:44;5.23;;;1.67;;
16667;SDS011;8447;52.630;4.734;2023-03-23T01:39:10;5.20;;;1.87;;
16667;SDS011;8447;52.630;4.734;2023-03-23T01:41:37;5.97;;;1.43;;
16667;SDS011;8447;52.630;4.734;2023-03-23T01:44:05;3.80;;;1.50;;
16667;SDS011;8447;52.630;4.734;2023-03-23T01:46:34;4.73;;;1.57;;
16667;SDS011;8447;52.630;4.734;2023-03-23T01:49:02;3.60;;;1.23;;
16667;SDS011;8447;52.630;4.734;2023-03-23T01:51:31;4.37;;;1.43;;
16667;SDS011;8447;52.630;4.734;2023-03-23T01:53:59;1.40;;;1.20;;
16667;SDS011;8447;52.630;4.734;2023-03-23T01:56:30;2.03;;;1.63;;
16667;SDS011;8447;52.630;4.734;2023-03-23T01:58:58;4.57;;;1.50;;
16667;SDS011;8447;52.630;4.734;2023-03-23T02:01:24;6.00;;;1.63;;
16667;SDS011;8447;52.630;4.734;2023-03-23T02:03:53;3.30;;;1.30;;
16667;SDS011;8447;52.630;4.734;2023-03-23T02:06:20;2.40;;;1.40;;
16667;SDS011;8447;52.630;4.734;2023-03-23T02:08:47;6.60;;;1.20;;
16667;SDS011;8447;52.630;4.734;2023-03-23T02:11:14;2.77;;;1.70;;
16667;SDS011;8447;52.630;4.734;2023-03-23T02:13:41;4.27;;;1.80;;
16667;SDS011;8447;52.630;4.734;2023-03-23T02:16:09;3.83;;;1.30;;
16667;SDS011;8447;52.630;4.734;2023-03-23T02:18:40;3.30;;;0.93;;
16667;SDS011;8447;52.630;4.734;2023-03-23T02:26:48;4.87;;;1.30;;
16667;SDS011;8447;52.630;4.734;2023-03-23T02:29:29;1.43;;;0.80;;
16667;SDS011;8447;52.630;4.734;2023-03-23T02:32:03;4.90;;;1.33;;
16667;SDS011;8447;52.630;4.734;2023-03-23T02:34:33;3.20;;;1.00;;
16667;SDS011;8447;52.630;4.734;2023-03-23T02:37:02;2.77;;;1.03;;
16667;SDS011;8447;52.630;4.734;2023-03-23T02:39:31;2.57;;;1.00;;
16667;SDS011;8447;52.630;4.734;2023-03-23T02:42:00;4.43;;;1.47;;
16667;SDS011;8447;52.630;4.734;2023-03-23T02:44:28;3.53;;;1.10;;
16667;SDS011;8447;52.630;4.734;2023-03-23T02:46:55;2.43;;;1.03;;
16667;SDS011;8447;52.630;4.734;2023-03-23T02:49:22;1.83;;;1.20;;
16667;SDS011;8447;52.630;4.734;2023-03-23T02:51:51;11.10;;;1.30;;
16667;SDS011;8447;52.630;4.734;2023-03-23T02:54:18;1.77;;;0.87;;
16667;SDS011;8447;52.630;4.734;2023-03-23T02:56:47;9.50;;;1.37;;
16667;SDS011;8447;52.630;4.734;2023-03-23T02:59:15;7.73;;;2.20;;
16667;SDS011;8447;52.630;4.734;2023-03-23T03:01:46;2.93;;;1.50;;
16667;SDS011;8447;52.630;4.734;2023-03-23T03:04:14;13.07;;;2.03;;
16667;SDS011;8447;52.630;4.734;2023-03-23T03:06:44;3.47;;;1.30;;
16667;SDS011;8447;52.630;4.734;2023-03-23T03:09:16;3.50;;;1.30;;
16667;SDS011;8447;52.630;4.734;2023-03-23T03:11:45;4.40;;;1.30;;
16667;SDS011;8447;52.630;4.734;2023-03-23T03:14:13;6.43;;;1.43;;
16667;SDS011;8447;52.630;4.734;2023-03-23T03:16:45;3.23;;;1.50;;
16667;SDS011;8447;52.630;4.734;2023-03-23T03:19:14;5.33;;;2.10;;
16667;SDS011;8447;52.630;4.734;2023-03-23T03:21:42;9.30;;;2.60;;
16667;SDS011;8447;52.630;4.734;2023-03-23T03:24:08;6.13;;;1.80;;
16667;SDS011;8447;52.630;4.734;2023-03-23T03:26:37;5.37;;;1.57;;
16667;SDS011;8447;52.630;4.734;2023-03-23T03:29:04;2.47;;;0.90;;
16667;SDS011;8447;52.630;4.734;2023-03-23T03:31:32;4.13;;;1.37;;
16667;SDS011;8447;52.630;4.734;2023-03-23T03:33:59;6.30;;;1.67;;
16667;SDS011;8447;52.630;4.734;2023-03-23T03:36:28;6.10;;;1.40;;
16667;SDS011;8447;52.630;4.734;2023-03-23T03:39:00;8.37;;;2.33;;
16667;SDS011;8447;52.630;4.734;2023-03-23T03:41:26;6.73;;;1.57;;
16667;SDS011;8447;52.630;4.734;2023-03-23T03:43:54;5.97;;;1.87;;
16667;SDS011;8447;52.630;4.734;2023-03-23T03:46:20;8.33;;;1.30;;
16667;SDS011;8447;52.630;4.734;2023-03-23T03:48:47;6.33;;;2.13;;
16667;SDS011;8447;52.630;4.734;2023-03-23T03:51:16;10.27;;;2.30;;
16667;SDS011;8447;52.630;4.734;2023-03-23T03:53:43;4.87;;;1.03;;
16667;SDS011;8447;52.630;4.734;2023-03-23T03:56:09;10.77;;;2.47;;
16667;SDS011;8447;52.630;4.734;2023-03-23T03:58:36;5.53;;;1.60;;
16667;SDS011;8447;52.630;4.734;2023-03-23T04:01:03;12.23;;;2.10;;
16667;SDS011;8447;52.630;4.734;2023-03-23T04:03:30;6.53;;;1.77;;
16667;SDS011;8447;52.630;4.734;2023-03-23T04:05:56;4.73;;;1.13;;
16667;SDS011;8447;52.630;4.734;2023-03-23T04:08:24;9.13;;;1.77;;
16667;SDS011;8447;52.630;4.734;2023-03-23T04:10:51;2.97;;;1.20;;
16667;SDS011;8447;52.630;4.734;2023-03-23T04:13:18;18.80;;;2.70;;
16667;SDS011;8447;52.630;4.734;2023-03-23T04:15:45;6.93;;;1.90;;
16667;SDS011;8447;52.630;4.734;2023-03-23T04:18:14;10.47;;;2.87;;
16667;SDS011;8447;52.630;4.734;2023-03-23T04:20:42;8.50;;;1.93;;
16667;SDS011;8447;52.630;4.734;2023-03-23T04:23:09;12.00;;;2.83;;
16667;SDS011;8447;52.630;4.734;2023-03-23T04:25:36;7.20;;;2.17;;
16667;SDS011;8447;52.630;4.734;2023-03-23T04:28:04;13.00;;;2.23;;
16667;SDS011;8447;52.630;4.734;2023-03-23T04:30:30;11.17;;;2.30;;
16667;SDS011;8447;52.630;4.734;2023-03-23T04:32:57;11.77;;;2.20;;
16667;SDS011;8447;52.630;4.734;2023-03-23T04:35:25;8.30;;;2.07;;
16667;SDS011;8447;52.630;4.734;2023-03-23T04:37:52;12.37;;;2.53;;
16667;SDS011;8447;52.630;4.734;2023-03-23T04:40:19;11.20;;;2.70;;
16667;SDS011;8447;52.630;4.734;2023-03-23T04:42:46;8.60;;;1.73;;
16667;SDS011;8447;52.630;4.734;2023-03-23T04:45:14;12.37;;;1.97;;
16667;SDS011;8447;52.630;4.734;2023-03-23T04:47:41;6.63;;;2.07;;
16667;SDS011;8447;52.630;4.734;2023-03-23T04:50:18;8.17;;;1.87;;
16667;SDS011;8447;52.630;4.734;2023-03-23T04:52:46;4.33;;;1.07;;
16667;SDS011;8447;52.630;4.734;2023-03-23T04:55:13;8.33;;;2.63;;
16667;SDS011;8447;52.630;4.734;2023-03-23T04:57:39;6.40;;;1.73;;
16667;SDS011;8447;52.630;4.734;2023-03-23T05:00:06;4.77;;;1.53;;
16667;SDS011;8447;52.630;4.734;2023-03-23T05:02:34;8.73;;;3.03;;
16667;SDS011;8447;52.630;4.734;2023-03-23T05:05:00;14.30;;;2.43;;
16667;SDS011;8447;52.630;4.734;2023-03-23T05:07:27;5.53;;;1.73;;
16667;SDS011;8447;52.630;4.734;2023-03-23T05:09:55;11.73;;;2.33;;
16667;SDS011;8447;52.630;4.734;2023-03-23T05:12:21;11.03;;;2.37;;
16667;SDS011;8447;52.630;4.734;2023-03-23T05:14:47;1.47;;;0.63;;
16667;SDS011;8447;52.630;4.734;2023-03-23T05:17:14;15.93;;;2.43;;
16667;SDS011;8447;52.630;4.734;2023-03-23T05:19:41;9.70;;;1.70;;
16667;SDS011;8447;52.630;4.734;2023-03-23T05:22:08;17.50;;;2.60;;
16667;SDS011;8447;52.630;4.734;2023-03-23T05:24:37;16.60;;;2.87;;
16667;SDS011;8447;52.630;4.734;2023-03-23T05:27:05;13.53;;;2.47;;
16667;SDS011;8447;52.630;4.734;2023-03-23T05:29:32;11.60;;;3.13;;
16667;SDS011;8447;52.630;4.734;2023-03-23T05:32:01;3.53;;;1.20;;
16667;SDS011;8447;52.630;4.734;2023-03-23T05:34:27;14.17;;;3.10;;
16667;SDS011;8447;52.630;4.734;2023-03-23T05:36:54;12.70;;;2.03;;
16667;SDS011;8447;52.630;4.734;2023-03-23T05:39:22;11.23;;;2.60;;
16667;SDS011;8447;52.630;4.734;2023-03-23T05:41:49;12.57;;;2.10;;
16667;SDS011;8447;52.630;4.734;2023-03-23T05:44:18;19.23;;;3.03;;
16667;SDS011;8447;52.630;4.734;2023-03-23T05:46:44;7.30;;;1.70;;
16667;SDS011;8447;52.630;4.734;2023-03-23T05:49:10;13.77;;;4.27;;
16667;SDS011;8447;52.630;4.734;2023-03-23T05:51:37;17.17;;;3.60;;
16667;SDS011;8447;52.630;4.734;2023-03-23T05:54:03;21.40;;;4.57;;
16667;SDS011;8447;52.630;4.734;2023-03-23T05:56:30;18.40;;;4.50;;
16667;SDS011;8447;52.630;4.734;2023-03-23T05:58:56;13.57;;;2.90;;
16667;SDS011;8447;52.630;4.734;2023-03-23T06:01:24;17.47;;;3.60;;
16667;SDS011;8447;52.630;4.734;2023-03-23T06:03:50;12.57;;;2.83;;
16667;SDS011;8447;52.630;4.734;2023-03-23T06:06:19;16.73;;;3.80;;
16667;SDS011;8447;52.630;4.734;2023-03-23T06:08:45;10.43;;;2.53;;
16667;SDS011;8447;52.630;4.734;2023-03-23T06:11:13;9.00;;;1.97;;
16667;SDS011;8447;52.630;4.734;2023-03-23T06:13:39;16.73;;;3.70;;
16667;SDS011;8447;52.630;4.734;2023-03-23T06:16:07;13.57;;;3.00;;
16667;SDS011;8447;52.630;4.734;2023-03-23T06:18:35;15.00;;;2.93;;
16667;SDS011;8447;52.630;4.734;2023-03-23T06:21:02;17.63;;;3.20;;
16667;SDS011;8447;52.630;4.734;2023-03-23T06:23:28;18.83;;;3.67;;
16667;SDS011;8447;52.630;4.734;2023-03-23T06:25:54;16.53;;;3.00;;
16667;SDS011;8447;52.630;4.734;2023-03-23T06:28:22;18.37;;;4.13;;
16667;SDS011;8447;52.630;4.734;2023-03-23T06:30:49;15.27;;;3.07;;
16667;SDS011;8447;52.630;4.734;2023-03-23T06:33:17;13.67;;;2.97;;
16667;SDS011;8447;52.630;4.734;2023-03-23T06:35:45;14.93;;;2.90;;
16667;SDS011;8447;52.630;4.734;2023-03-23T06:38:11;13.33;;;2.80;;
16667;SDS011;8447;52.630;4.734;2023-03-23T06:40:38;17.87;;;3.40;;
16667;SDS011;8447;52.630;4.734;2023-03-23T06:43:04;19.33;;;3.93;;
16667;SDS011;8447;52.630;4.734;2023-03-23T06:45:31;13.90;;;2.87;;
16667;SDS011;8447;52.630;4.734;2023-03-23T06:47:57;13.43;;;3.13;;
16667;SDS011;8447;52.630;4.734;2023-03-23T06:50:23;14.33;;;3.23;;
16667;SDS011;8447;52.630;4.734;2023-03-23T06:52:52;15.33;;;2.80;;
16667;SDS011;8447;52.630;4.734;2023-03-23T06:55:18;19.43;;;3.90;;
16667;SDS011;8447;52.630;4.734;2023-03-23T06:57:44;22.63;;;4.07;;
16667;SDS011;8447;52.630;4.734;2023-03-23T07:00:11;17.37;;;4.03;;
16667;SDS011;8447;52.630;4.734;2023-03-23T07:02:38;21.73;;;3.57;;
16667;SDS011;8447;52.630;4.734;2023-03-23T07:05:05;16.63;;;3.60;;
16667;SDS011;8447;52.630;4.734;2023-03-23T07:07:32;15.43;;;3.40;;
16667;SDS011;8447;52.630;4.734;2023-03-23T07:10:00;21.50;;;4.60;;
16667;SDS011;8447;52.630;4.734;2023-03-23T07:12:27;19.97;;;4.50;;
16667;SDS011;8447;52.630;4.734;2023-03-23T07:14:53;20.07;;;4.10;;
16667;SDS011;8447;52.630;4.734;2023-03-23T07:17:20;23.50;;;3.70;;
16667;SDS011;8447;52.630;4.734;2023-03-23T07:19:46;25.03;;;5.00;;
16667;SDS011;8447;52.630;4.734;2023-03-23T07:22:13;27.33;;;4.20;;
16667;SDS011;8447;52.630;4.734;2023-03-23T07:24:39;18.77;;;3.67;;
16667;SDS011;8447;52.630;4.734;2023-03-23T07:27:07;22.23;;;3.63;;
16667;SDS011;8447;52.630;4.734;2023-03-23T07:29:34;18.47;;;3.10;;
16667;SDS011;8447;52.630;4.734;2023-03-23T07:32:03;20.07;;;3.90;;
16667;SDS011;8447;52.630;4.734;2023-03-23T07:34:30;22.30;;;4.13;;
16667;SDS011;8447;52.630;4.734;2023-03-23T07:36:56;24.23;;;4.17;;
16667;SDS011;8447;52.630;4.734;2023-03-23T07:39:23;18.57;;;4.27;;
16667;SDS011;8447;52.630;4.734;2023-03-23T07:41:50;14.70;;;4.00;;
16667;SDS011;8447;52.630;4.734;2023-03-23T07:44:18;16.40;;;2.90;;
16667;SDS011;8447;52.630;4.734;2023-03-23T07:46:44;22.53;;;3.83;;
16667;SDS011;8447;52.630;4.734;2023-03-23T07:49:11;22.13;;;4.47;;
16667;SDS011;8447;52.630;4.734;2023-03-23T07:51:38;16.63;;;3.30;;
16667;SDS011;8447;52.630;4.734;2023-03-23T07:54:04;24.10;;;4.60;;
16667;SDS011;8447;52.630;4.734;2023-03-23T07:56:32;15.50;;;3.37;;
16667;SDS011;8447;52.630;4.734;2023-03-23T07:58:58;14.93;;;3.67;;
16667;SDS011;8447;52.630;4.734;2023-03-23T08:01:27;20.07;;;3.97;;
16667;SDS011;8447;52.630;4.734;2023-03-23T08:03:53;14.03;;;3.37;;
16667;SDS011;8447;52.630;4.734;2023-03-23T08:06:22;14.43;;;3.23;;
16667;SDS011;8447;52.630;4.734;2023-03-23T08:08:49;16.63;;;3.60;;
16667;SDS011;8447;52.630;4.734;2023-03-23T08:11:15;17.80;;;3.80;;
16667;SDS011;8447;52.630;4.734;2023-03-23T08:13:42;17.70;;;3.97;;
16667;SDS011;8447;52.630;4.734;2023-03-23T08:16:08;10.93;;;3.20;;
16667;SDS011;8447;52.630;4.734;2023-03-23T08:18:37;12.40;;;3.73;;
16667;SDS011;8447;52.630;4.734;2023-03-23T08:21:04;9.50;;;3.07;;
16667;SDS011;8447;52.630;4.734;2023-03-23T08:23:31;15.93;;;3.87;;
16667;SDS011;8447;52.630;4.734;2023-03-23T08:25:57;11.80;;;3.50;;
16667;SDS011;8447;52.630;4.734;2023-03-23T08:28:24;8.87;;;2.57;;
16667;SDS011;8447;52.630;4.734;2023-03-23T08:30:50;16.43;;;2.90;;
16667;SDS011;8447;52.630;4.734;2023-03-23T08:33:17;16.03;;;3.90;;
16667;SDS011;8447;52.630;4.734;2023-03-23T08:35:45;19.10;;;4.17;;
16667;SDS011;8447;52.630;4.734;2023-03-23T08:38:12;10.67;;;2.80;;
16667;SDS011;8447;52.630;4.734;2023-03-23T08:40:38;14.47;;;4.10;;
16667;SDS011;8447;52.630;4.734;2023-03-23T08:43:05;20.37;;;4.47;;
16667;SDS011;8447;52.630;4.734;2023-03-23T08:45:31;15.63;;;4.00;;
16667;SDS011;8447;52.630;4.734;2023-03-23T08:47:57;14.90;;;4.43;;
16667;SDS011;8447;52.630;4.734;2023-03-23T08:50:25;14.40;;;3.37;;
16667;SDS011;8447;52.630;4.734;2023-03-23T08:52:53;10.87;;;3.30;;
16667;SDS011;8447;52.630;4.734;2023-03-23T08:55:20;12.43;;;3.77;;
16667;SDS011;8447;52.630;4.734;2023-03-23T08:57:47;9.93;;;3.40;;
16667;SDS011;8447;52.630;4.734;2023-03-23T09:00:15;9.20;;;2.87;;
16667;SDS011;8447;52.630;4.734;2023-03-23T09:02:43;12.63;;;3.20;;
16667;SDS011;8447;52.630;4.734;2023-03-23T09:05:10;10.90;;;3.50;;
16667;SDS011;8447;52.630;4.734;2023-03-23T09:07:37;11.67;;;2.53;;
16667;SDS011;8447;52.630;4.734;2023-03-23T09:10:05;10.63;;;3.87;;
16667;SDS011;8447;52.630;4.734;2023-03-23T09:12:32;15.97;;;3.37;;
16667;SDS011;8447;52.630;4.734;2023-03-23T09:14:58;9.77;;;2.90;;
16667;SDS011;8447;52.630;4.734;2023-03-23T09:17:26;14.23;;;3.30;;
16667;SDS011;8447;52.630;4.734;2023-03-23T09:19:52;10.13;;;2.50;;
16667;SDS011;8447;52.630;4.734;2023-03-23T09:22:19;12.03;;;2.87;;
16667;SDS011;8447;52.630;4.734;2023-03-23T09:24:48;8.90;;;2.67;;
16667;SDS011;8447;52.630;4.734;2023-03-23T09:27:16;10.40;;;3.47;;
16667;SDS011;8447;52.630;4.734;2023-03-23T09:29:42;15.10;;;3.80;;
16667;SDS011;8447;52.630;4.734;2023-03-23T09:32:10;13.43;;;3.40;;
16667;SDS011;8447;52.630;4.734;2023-03-23T09:34:38;8.90;;;2.93;;
16667;SDS011;8447;52.630;4.734;2023-03-23T09:37:04;10.47;;;3.33;;
16667;SDS011;8447;52.630;4.734;2023-03-23T09:39:31;11.47;;;3.03;;
16667;SDS011;8447;52.630;4.734;2023-03-23T09:42:01;12.67;;;2.90;;
16667;SDS011;8447;52.630;4.734;2023-03-23T09:44:33;9.83;;;2.70;;
16667;SDS011;8447;52.630;4.734;2023-03-23T09:47:04;12.93;;;3.40;;
16667;SDS011;8447;52.630;4.734;2023-03-23T09:49:33;10.37;;;2.67;;
16667;SDS011;8447;52.630;4.734;2023-03-23T09:52:00;10.23;;;2.90;;
16667;SDS011;8447;52.630;4.734;2023-03-23T09:54:29;13.20;;;2.73;;
16667;SDS011;8447;52.630;4.734;2023-03-23T09:56:57;9.17;;;3.10;;
16667;SDS011;8447;52.630;4.734;2023-03-23T09:59:25;10.00;;;2.57;;
16667;SDS011;8447;52.630;4.734;2023-03-23T10:01:55;9.30;;;2.97;;
16667;SDS011;8447;52.630;4.734;2023-03-23T10:04:26;12.70;;;3.40;;
16667;SDS011;8447;52.630;4.734;2023-03-23T10:06:53;9.47;;;2.70;;
16667;SDS011;8447;52.630;4.734;2023-03-23T10:09:23;8.93;;;2.42;;
16667;SDS011;8447;52.630;4.734;2023-03-23T10:11:52;9.80;;;3.25;;
16667;SDS011;8447;52.630;4.734;2023-03-23T10:14:25;14.38;;;3.58;;
16667;SDS011;8447;52.630;4.734;2023-03-23T10:16:57;13.43;;;4.00;;
16667;SDS011;8447;52.630;4.734;2023-03-23T10:19:27;14.13;;;3.45;;
16667;SDS011;8447;52.630;4.734;2023-03-23T10:21:56;10.20;;;3.13;;
16667;SDS011;8447;52.630;4.734;2023-03-23T10:24:26;9.73;;;2.70;;
16667;SDS011;8447;52.630;4.734;2023-03-23T10:26:57;16.17;;;3.25;;
16667;SDS011;8447;52.630;4.734;2023-03-23T10:29:26;12.02;;;2.83;;
16667;SDS011;8447;52.630;4.734;2023-03-23T10:31:56;10.23;;;3.15;;
16667;SDS011;8447;52.630;4.734;2023-03-23T10:34:32;10.32;;;3.03;;
16667;SDS011;8447;52.630;4.734;2023-03-23T10:37:01;8.20;;;2.45;;
16667;SDS011;8447;52.630;4.734;2023-03-23T10:39:30;9.75;;;2.90;;
16667;SDS011;8447;52.630;4.734;2023-03-23T10:41:59;14.43;;;2.92;;
16667;SDS011;8447;52.630;4.734;2023-03-23T10:44:32;8.93;;;2.38;;
16667;SDS011;8447;52.630;4.734;2023-03-23T10:47:00;11.27;;;3.47;;
16667;SDS011;8447;52.630;4.734;2023-03-23T10:49:28;9.32;;;3.25;;
16667;SDS011;8447;52.630;4.734;2023-03-23T10:51:59;10.30;;;2.45;;
16667;SDS011;8447;52.630;4.734;2023-03-23T10:54:31;7.72;;;1.95;;
16667;SDS011;8447;52.630;4.734;2023-03-23T10:56:58;8.75;;;2.55;;
16667;SDS011;8447;52.630;4.734;2023-03-23T10:59:26;8.65;;;2.15;;
16667;SDS011;8447;52.630;4.734;2023-03-23T11:01:55;8.98;;;2.65;;
16667;SDS011;8447;52.630;4.734;2023-03-23T11:04:24;14.07;;;3.08;;
16667;SDS011;8447;52.630;4.734;2023-03-23T11:06:51;11.07;;;3.08;;
16667;SDS011;8447;52.630;4.734;2023-03-23T11:09:19;8.45;;;2.25;;
16667;SDS011;8447;52.630;4.734;2023-03-23T11:11:48;13.13;;;3.22;;
16667;SDS011;8447;52.630;4.734;2023-03-23T11:14:15;9.88;;;2.97;;
16667;SDS011;8447;52.630;4.734;2023-03-23T11:16:43;10.82;;;3.28;;
16667;SDS011;8447;52.630;4.734;2023-03-23T11:19:13;9.90;;;3.25;;
16667;SDS011;8447;52.630;4.734;2023-03-23T11:21:41;12.43;;;3.30;;
16667;SDS011;8447;52.630;4.734;2023-03-23T11:24:12;7.85;;;2.47;;
16667;SDS011;8447;52.630;4.734;2023-03-23T11:26:39;12.07;;;3.05;;
16667;SDS011;8447;52.630;4.734;2023-03-23T11:29:10;10.63;;;3.35;;
16667;SDS011;8447;52.630;4.734;2023-03-23T11:31:38;14.88;;;3.90;;
16667;SDS011;8447;52.630;4.734;2023-03-23T11:34:08;11.95;;;2.72;;
16667;SDS011;8447;52.630;4.734;2023-03-23T11:36:36;10.30;;;3.05;;
16667;SDS011;8447;52.630;4.734;2023-03-23T11:39:16;13.30;;;3.25;;
16667;SDS011;8447;52.630;4.734;2023-03-23T11:41:44;13.75;;;3.25;;
16667;SDS011;8447;52.630;4.734;2023-03-23T11:44:11;11.00;;;2.97;;
16667;SDS011;8447;52.630;4.734;2023-03-23T11:46:40;13.82;;;3.22;;
16667;SDS011;8447;52.630;4.734;2023-03-23T11:49:09;7.60;;;2.72;;
16667;SDS011;8447;52.630;4.734;2023-03-23T11:51:38;9.55;;;3.28;;
16667;SDS011;8447;52.630;4.734;2023-03-23T11:54:09;9.68;;;2.80;;
16667;SDS011;8447;52.630;4.734;2023-03-23T11:56:39;9.77;;;2.47;;
16667;SDS011;8447;52.630;4.734;2023-03-23T11:59:09;12.63;;;3.33;;
16667;SDS011;8447;52.630;4.734;2023-03-23T12:01:44;11.77;;;3.42;;
16667;SDS011;8447;52.630;4.734;2023-03-23T12:04:33;10.98;;;3.10;;
16667;SDS011;8447;52.630;4.734;2023-03-23T12:07:05;10.75;;;2.85;;
16667;SDS011;8447;52.630;4.734;2023-03-23T12:09:40;8.47;;;2.50;;
16667;SDS011;8447;52.630;4.734;2023-03-23T12:12:12;10.20;;;2.50;;
16667;SDS011;8447;52.630;4.734;2023-03-23T12:14:47;11.63;;;3.13;;
16667;SDS011;8447;52.630;4.734;2023-03-23T12:17:21;8.80;;;3.10;;
16667;SDS011;8447;52.630;4.734;2023-03-23T12:19:51;7.13;;;2.50;;
16667;SDS011;8447;52.630;4.734;2023-03-23T12:22:26;8.73;;;2.70;;
16667;SDS011;8447;52.630;4.734;2023-03-23T12:25:00;8.30;;;2.80;;
16667;SDS011;8447;52.630;4.734;2023-03-23T12:27:32;10.10;;;2.57;;
16667;SDS011;8447;52.630;4.734;2023-03-23T12:30:08;9.17;;;2.10;;
16667;SDS011;8447;52.630;4.734;2023-03-23T12:32:39;7.33;;;1.93;;
16667;SDS011;8447;52.630;4.734;2023-03-23T12:35:17;9.20;;;2.43;;
16667;SDS011;8447;52.630;4.734;2023-03-23T12:37:49;12.27;;;2.47;;
16667;SDS011;8447;52.630;4.734;2023-03-23T12:40:37;10.57;;;2.40;;
16667;SDS011;8447;52.630;4.734;2023-03-23T12:43:09;11.37;;;2.80;;
16667;SDS011;8447;52.630;4.734;2023-03-23T12:45:49;10.37;;;2.77;;
16667;SDS011;8447;52.630;4.734;2023-03-23T12:48:17;8.67;;;2.93;;
16667;SDS011;8447;52.630;4.734;2023-03-23T12:50:47;7.87;;;2.33;;
16667;SDS011;8447;52.630;4.734;2023-03-23T12:53:14;9.80;;;3.00;;
16667;SDS011;8447;52.630;4.734;2023-03-23T12:55:45;9.17;;;2.60;;
16667;SDS011;8447;52.630;4.734;2023-03-23T12:58:13;10.90;;;2.93;;
16667;SDS011;8447;52.630;4.734;2023-03-23T13:00:53;9.87;;;2.20;;
16667;SDS011;8447;52.630;4.734;2023-03-23T13:03:21;10.00;;;2.47;;
16667;SDS011;8447;52.630;4.734;2023-03-23T13:05:50;7.87;;;2.03;;
16667;SDS011;8447;52.630;4.734;2023-03-23T13:08:21;4.57;;;1.50;;
16667;SDS011;8447;52.630;4.734;2023-03-23T13:10:51;10.73;;;2.30;;
16667;SDS011;8447;52.630;4.734;2023-03-23T13:13:19;9.23;;;1.60;;
16667;SDS011;8447;52.630;4.734;2023-03-23T13:15:51;10.27;;;2.57;;
16667;SDS011;8447;52.630;4.734;2023-03-23T13:18:19;9.53;;;2.73;;
16667;SDS011;8447;52.630;4.734;2023-03-23T13:20:50;8.03;;;2.40;;
16667;SDS011;8447;52.630;4.734;2023-03-23T13:23:18;11.37;;;3.30;;
16667;SDS011;8447;52.630;4.734;2023-03-23T13:25:51;9.40;;;2.50;;
16667;SDS011;8447;52.630;4.734;2023-03-23T13:28:20;7.73;;;2.10;;
16667;SDS011;8447;52.630;4.734;2023-03-23T13:30:57;6.73;;;2.23;;
16667;SDS011;8447;52.630;4.734;2023-03-23T13:33:25;11.80;;;2.90;;
16667;SDS011;8447;52.630;4.734;2023-03-23T13:35:51;8.80;;;2.60;;
16667;SDS011;8447;52.630;4.734;2023-03-23T13:38:19;8.23;;;2.60;;
16667;SDS011;8447;52.630;4.734;2023-03-23T13:40:47;14.43;;;2.67;;
16667;SDS011;8447;52.630;4.734;2023-03-23T13:43:24;13.73;;;2.57;;
16667;SDS011;8447;52.630;4.734;2023-03-23T13:45:51;10.43;;;2.23;;
16667;SDS011;8447;52.630;4.734;2023-03-23T13:48:20;11.67;;;2.93;;
16667;SDS011;8447;52.630;4.734;2023-03-23T13:50:49;12.47;;;2.40;;
16667;SDS011;8447;52.630;4.734;2023-03-23T13:53:21;10.87;;;2.60;;
16667;SDS011;8447;52.630;4.734;2023-03-23T13:55:49;13.70;;;2.90;;
16667;SDS011;8447;52.630;4.734;2023-03-23T13:58:24;7.17;;;2.20;;
16667;SDS011;8447;52.630;4.734;2023-03-23T14:01:00;11.60;;;2.33;;
16667;SDS011;8447;52.630;4.734;2023-03-23T14:03:33;11.23;;;3.23;;
16667;SDS011;8447;52.630;4.734;2023-03-23T14:06:03;10.10;;;2.53;;
16667;SDS011;8447;52.630;4.734;2023-03-23T14:08:38;8.10;;;1.87;;
16667;SDS011;8447;52.630;4.734;2023-03-23T14:11:10;10.47;;;2.60;;
16667;SDS011;8447;52.630;4.734;2023-03-23T14:13:41;5.47;;;2.27;;
16667;SDS011;8447;52.630;4.734;2023-03-23T14:16:13;16.10;;;2.83;;
16667;SDS011;8447;52.630;4.734;2023-03-23T14:18:41;7.43;;;2.17;;
16667;SDS011;8447;52.630;4.734;2023-03-23T14:21:13;10.70;;;1.97;;
16667;SDS011;8447;52.630;4.734;2023-03-23T14:23:40;11.43;;;2.50;;
16667;SDS011;8447;52.630;4.734;2023-03-23T14:26:09;10.63;;;2.90;;
16667;SDS011;8447;52.630;4.734;2023-03-23T14:28:41;14.43;;;3.03;;
16667;SDS011;8447;52.630;4.734;2023-03-23T14:31:12;10.57;;;2.30;;
16667;SDS011;8447;52.630;4.734;2023-03-23T14:33:41;14.37;;;3.57;;
16667;SDS011;8447;52.630;4.734;2023-03-23T14:36:07;9.67;;;2.27;;
16667;SDS011;8447;52.630;4.734;2023-03-23T14:38:34;10.63;;;2.40;;
16667;SDS011;8447;52.630;4.734;2023-03-23T14:41:01;8.30;;;1.57;;
16667;SDS011;8447;52.630;4.734;2023-03-23T14:43:28;6.87;;;2.30;;
16667;SDS011;8447;52.630;4.734;2023-03-23T14:45:57;7.03;;;2.40;;
16667;SDS011;8447;52.630;4.734;2023-03-23T14:48:25;7.67;;;2.43;;
16667;SDS011;8447;52.630;4.734;2023-03-23T14:50:52;11.10;;;3.43;;
16667;SDS011;8447;52.630;4.734;2023-03-23T14:53:19;14.37;;;3.10;;
16667;SDS011;8447;52.630;4.734;2023-03-23T14:55:47;10.77;;;2.37;;
16667;SDS011;8447;52.630;4.734;2023-03-23T14:58:14;13.90;;;3.17;;
16667;SDS011;8447;52.630;4.734;2023-03-23T15:00:42;10.70;;;2.47;;
16667;SDS011;8447;52.630;4.734;2023-03-23T15:03:12;12.90;;;2.57;;
16667;SDS011;8447;52.630;4.734;2023-03-23T15:05:41;7.07;;;2.03;;
16667;SDS011;8447;52.630;4.734;2023-03-23T15:08:11;9.20;;;2.10;;